Share

Adams, MN

9:07 AM CDT on April 24, 2014 (GMT -0500)
Austin Municipal (KAUM) Elev 1230 ft | 43.67 °N, 92.93 °W | Change Station

Current weather conditions updated 12 minutes ago

Overcast
Overcast
43 °F
Feels Like 34 °F
N
22
Wind Variable Wind from SE
Gusts 29 mph
Sunrise 6:13 AM
Sunset 8:04 PM
Moon Waning Crescent

Today is forecast to be Warmer than yesterday. Cloudy with rain.

Pressure 29.71 in
Visibility 10.0 miles
Clouds Scattered Clouds 3100 ft
Overcast 4400 ft
Windchill 34 °F
Dew Point 37 °F
Humidity 81%
Rainfall 1.83 in
Snow Depth Not available.
UV 1 out of 16
Pollen 2.00 out of 12
Air Quality Not available.
Flu Activity Sporadic
METAR KAUM 241355Z AUTO 13019G25KT 10SM SCT031 OVC044 06/03 A2971 RMK AO2

More Conditions Fewer Conditions

Pressure 29.71 in
Visibility 10.0 miles
Clouds Scattered Clouds 3100 ft
Overcast 4400 ft
Windchill 34 °F
Dew Point 37 °F
Humidity 81%
Rainfall 1.83 in
Snow Depth Not available.
UV 1 out of 16
Pollen 2.00 out of 12
Air Quality Not available.
Flu Activity Sporadic
METAR KAUM 241355Z AUTO 13019G25KT 10SM SCT031 OVC044 06/03 A2971 RMK AO2

More Conditions Fewer Conditions

10-Day Weather Forecast

Almanac

Astronomy

Apr. 24, 2014 Rise Set
Actual Time 6:13 AM CDT 8:04 PM CDT
Civil Twilight 5:43 AM CDT 8:35 PM CDT
Nautical Twilight 5:05 AM CDT 9:13 PM CDT
Astronomical Twilight 4:25 AM CDT 9:54 PM CDT
Moon 3:34 AM CDT 3:12 PM CDT
Length of Visible Light 14h 52m
Length of Day
13h 51m
Tomorrow will be 2m 43s longer.
Waning Crescent, 25% of the Moon is Illuminated
Today
Waning Crescent
Apr 29
New
May 6
First Quarter
May 14
Full
May 21
Last Quarter

Today's Extremes

State Highs State Lows

Community

  • Clouds mov'n in
    Clouds mov'n in
  • Stacked
    Stacked
  • clouds approaching Red Sox Nation
    clouds approaching Red Sox Nation
  • Balance
    Balance
  • Citysky
    Citysky

WunderPhotos

Upload Photos

1,704,612 photos uploaded!

Nearby

Snow Depth

Station Depth Elevation
No new snow has been reported.

Coastal Water Temperatures

Place Temperature
No Stations Reporting

Earthquake Activity

City Distance Mag. Time & Date
No recent earthquake activity has been reported nearby.
Minimum magnitude displayed is 2.5.

Nearby Weather Stations

Station Location Temp. Windchill Dew Point Humidity Wind Precip. Elev Updated Type
St. Ansgar GreenHouse & Floral Shop, St. Ansgar, IA 40.6 °F 41 °F 35 °F 79% East  at  0.0 mph 0.00 in / hr 1152 ft 9:06 AM CDT Normal
Riceville, IA, Riceville, IA 40.1 °F 32 °F 38 °F 93% ESE  at  16.0 mph 0.04 in / hr 1289 ft 8:56 AM CDT Normal
Osage, IA 39.6 °F 40 °F 36 °F 85% ESE  at  0.0 mph 0.00 in / hr 1173 ft 9:06 AM CDT Normal
Kraushaar Farms, Glenville, MN 40.9 °F 33 °F 38 °F 91% East  at  16.0 mph 0.00 in / hr 1250 ft 9:05 AM CDT Normal

Show More Stations Show Fewer Stations

What do you think?

We're not finished. Please let us know what you like, what you don't like, and what you are still missing.